昆明 の空港の天気 - METARとTAF

昆明巫家餽国際空港 ( ZPPP / KMG ) - 中華人民共和国 雲南省昆明市
飛行場実況気象(Metar)
観測時間06/29 09:00 CST (06/29 01:00 UTC)
風向・風速南南西 4m/s
視程8000m
天気現象弱いしゅう雨
少しの雲 雲底高度 300m
全天の4割程度の雲 雲底高度 610m
全天を覆う雲 雲底高度 1010m
気温17℃
湿度94%
気圧1018hPa
METARZPPP 290100Z 20004MPS 8000 -SHRA FEW010 SCT020 OVC033 17/16 Q1018 NOSIG
過去の天気等 Google飛行場航空写真 Wunderground天気予報

過去48時間のMETAR

飛行場予報(TAF)
発表時間: 6/29 03:03 CST (6/28 19:03 UTC)
予報対象時間: 29日8時 CST ~ 30日8時 CST
風向・風速南西 4m/s
視程10km以上
全天の4割程度の雲 雲底高度 610m
全天の8割程度の雲 雲底高度 1,010m
TAF ZPPP 281903Z 2900/2924 22004MPS 9999 SCT020 BKN033 TX23/2908Z TN14/2923Z